Time;durP1;ratioP1;P1;durP2;ratioP2;P2;SDS_P1;SDS_P2;PMS_P1;PMS_P2;Temp;Humidity;BMP_temperature;BMP_pressure;BME280_temperature;BME280_humidity;BME280_pressure;Samples;Min_cycle;Max_cycle;Signal;HPM_P1;HPM_P2
2022/01/29 00:01:36;;;;;;;19.50;7.78;;;7.20;99.90;;;;;;4976948;28;20463;-75
2022/01/29 00:04:02;;;;;;;23.80;9.13;;;7.20;99.90;;;;;;4991692;28;20489;-75
2022/01/29 00:06:28;;;;;;;14.75;7.05;;;7.20;99.90;;;;;;4988279;28;20050;-75
2022/01/29 00:08:56;;;;;;;14.48;7.65;;;7.20;99.90;;;;;;4993642;28;20041;-75
2022/01/29 00:11:27;;;;;;;16.48;7.28;;;7.20;99.90;;;;;;4977343;28;20038;-75
2022/01/29 00:13:53;;;;;;;15.73;8.23;;;7.20;99.90;;;;;;4978218;28;20058;-75
2022/01/29 00:16:19;;;;;;;24.23;8.25;;;7.20;99.90;;;;;;4983673;28;20052;-75
2022/01/29 00:18:44;;;;;;;21.95;8.85;;;7.20;99.90;;;;;;4990316;28;20042;-75
2022/01/29 00:21:10;;;;;;;18.02;7.90;;;7.20;99.90;;;;;;4990005;28;20042;-75
2022/01/29 00:23:36;;;;;;;21.38;9.60;;;7.20;99.90;;;;;;4992124;28;20044;-75
2022/01/29 00:26:02;;;;;;;17.25;7.70;;;7.20;99.90;;;;;;4957735;28;20526;-75
2022/01/29 00:28:28;;;;;;;18.27;7.65;;;7.20;99.90;;;;;;4991356;28;20123;-75
2022/01/29 00:30:56;;;;;;;17.50;6.95;;;7.30;99.90;;;;;;4999036;28;20085;-75
2022/01/29 00:33:22;;;;;;;18.77;8.27;;;7.30;99.90;;;;;;5007827;28;20077;-75
2022/01/29 00:35:48;;;;;;;25.35;9.68;;;7.20;99.90;;;;;;4992885;28;20076;-75
2022/01/29 00:38:13;;;;;;;22.45;8.23;;;7.30;99.90;;;;;;5007586;28;20132;-75
2022/01/29 00:40:39;;;;;;;19.65;9.50;;;7.30;99.90;;;;;;5010068;28;20042;-75
2022/01/29 00:43:05;;;;;;;15.15;7.18;;;7.30;99.90;;;;;;5010601;28;20111;-75
2022/01/29 00:45:33;;;;;;;23.52;8.75;;;7.30;99.90;;;;;;4979365;28;20041;-75
2022/01/29 00:47:59;;;;;;;18.02;8.32;;;7.30;99.90;;;;;;5010129;28;20049;-75
2022/01/29 00:50:25;;;;;;;25.90;8.38;;;7.30;99.90;;;;;;4995600;28;20362;-76
2022/01/29 00:52:50;;;;;;;14.77;7.38;;;7.30;99.90;;;;;;5008445;28;20052;-75
2022/01/29 00:55:17;;;;;;;16.83;8.35;;;7.30;99.90;;;;;;4993143;28;20037;-75
2022/01/29 00:57:43;;;;;;;17.25;7.32;;;7.30;99.90;;;;;;4976846;28;20378;-75
2022/01/29 01:00:12;;;;;;;14.82;7.38;;;7.30;99.90;;;;;;5010299;28;20295;-75
2022/01/29 01:02:38;;;;;;;16.15;6.88;;;7.40;99.90;;;;;;5006358;28;20052;-76
2022/01/29 01:05:06;;;;;;;18.48;8.70;;;7.40;99.90;;;;;;4993976;28;20585;-75
2022/01/29 01:07:31;;;;;;;15.93;8.13;;;7.40;99.90;;;;;;4990889;28;20037;-75
2022/01/29 01:09:57;;;;;;;23.10;8.13;;;7.40;99.90;;;;;;5006857;28;20121;-75
2022/01/29 01:12:23;;;;;;;17.48;10.05;;;7.40;99.90;;;;;;4995015;28;20581;-75
2022/01/29 01:14:51;;;;;;;22.02;8.23;;;7.40;99.90;;;;;;5008409;28;20041;-76
2022/01/29 01:17:18;;;;;;;20.35;8.23;;;7.40;99.90;;;;;;4992625;28;20037;-83
2022/01/29 01:19:44;;;;;;;18.63;8.90;;;7.40;99.90;;;;;;4994618;28;20103;-83
2022/01/29 01:22:10;;;;;;;22.08;9.32;;;7.40;99.90;;;;;;5007840;28;20079;-83
2022/01/29 01:24:36;;;;;;;18.63;8.38;;;7.40;99.90;;;;;;5006777;28;20385;-82
2022/01/29 01:27:02;;;;;;;19.92;8.43;;;7.40;99.90;;;;;;5025591;28;20429;-83
2022/01/29 01:29:29;;;;;;;21.35;8.98;;;7.40;99.90;;;;;;5007522;28;20079;-83
2022/01/29 01:31:55;;;;;;;18.60;9.07;;;7.50;99.90;;;;;;5008197;28;20089;-83
2022/01/29 01:34:23;;;;;;;21.52;8.48;;;7.50;99.90;;;;;;5014238;28;20386;-83
2022/01/29 01:36:57;;;;;;;20.45;8.55;;;7.50;99.90;;;;;;4994201;28;20069;-83
2022/01/29 01:39:28;;;;;;;18.27;8.98;;;7.50;99.90;;;;;;4995967;28;20048;-83
2022/01/29 01:42:03;;;;;;;16.48;9.13;;;7.50;99.90;;;;;;5011976;28;20041;-83
2022/01/29 01:44:43;;;;;;;18.13;8.52;;;7.50;99.90;;;;;;5006629;28;20386;-83
2022/01/29 01:47:09;;;;;;;14.77;9.50;;;7.50;99.90;;;;;;5009478;28;20042;-83
2022/01/29 01:49:36;;;;;;;21.75;9.52;;;7.50;99.90;;;;;;4996392;28;20045;-83
2022/01/29 01:52:03;;;;;;;24.58;10.63;;;7.50;99.90;;;;;;5007894;28;20044;-83
2022/01/29 01:54:29;;;;;;;20.40;9.38;;;7.50;99.90;;;;;;4994818;28;20044;-83
2022/01/29 01:56:54;;;;;;;15.98;8.80;;;7.60;99.90;;;;;;5008082;28;20037;-83
2022/01/29 01:59:20;;;;;;;23.55;11.32;;;7.60;99.90;;;;;;5006958;28;20646;-83
2022/01/29 02:01:46;;;;;;;19.33;10.20;;;7.60;99.90;;;;;;4994941;28;20409;-83
2022/01/29 02:04:12;;;;;;;21.10;9.63;;;7.60;99.90;;;;;;5010028;28;20052;-83
2022/01/29 02:06:38;;;;;;;24.75;11.50;;;7.60;99.90;;;;;;5001739;28;20441;-83
2022/01/29 02:09:04;;;;;;;23.60;11.32;;;7.60;99.90;;;;;;5017590;28;20119;-83
2022/01/29 02:11:30;;;;;;;20.02;11.10;;;7.70;99.90;;;;;;5008803;28;20116;-84
2022/01/29 02:13:58;;;;;;;20.55;11.52;;;7.60;99.90;;;;;;4992297;28;20125;-83
2022/01/29 02:16:27;;;;;;;24.92;11.77;;;7.70;99.90;;;;;;5011652;28;20048;-83
2022/01/29 02:18:52;;;;;;;24.58;13.10;;;7.70;99.90;;;;;;4992582;28;20049;-83
2022/01/29 02:21:19;;;;;;;26.40;14.07;;;7.70;99.90;;;;;;4993995;28;20257;-83
2022/01/29 02:23:45;;;;;;;24.80;10.77;;;7.70;99.90;;;;;;5015752;28;20041;-82
2022/01/29 02:26:11;;;;;;;32.22;11.90;;;7.80;99.90;;;;;;4992962;28;20393;-83
2022/01/29 02:28:37;;;;;;;24.10;10.82;;;;;;;;;;5005850;28;20030;-82
2022/01/29 02:31:04;;;;;;;21.10;11.50;;;7.80;99.90;;;;;;5013201;28;20053;-82
2022/01/29 02:33:36;;;;;;;22.60;11.52;;;7.80;99.90;;;;;;5008866;28;20048;-83
2022/01/29 02:36:02;;;;;;;20.73;11.23;;;;;;;;;;4996645;28;20497;-83
2022/01/29 02:38:29;;;;;;;22.40;12.13;;;;;;;;;;5008408;28;20045;-83
2022/01/29 02:41:02;;;;;;;28.33;12.10;;;;;;;;;;5009981;28;20393;-83
2022/01/29 02:43:49;;;;;;;26.17;11.43;;;;;;;;;;5007125;28;20537;-83
2022/01/29 02:48:43;;;;;;;19.83;12.38;;;;;;;;;;4993734;28;20095;-76
2022/01/29 02:51:09;;;;;;;27.60;12.38;;;;;;;;;;5012699;28;20666;-76
2022/01/29 02:53:36;;;;;;;22.33;12.45;;;;;;;;;;4998055;28;20440;-76
2022/01/29 02:56:02;;;;;;;29.77;11.70;;;;;;;;;;4994599;28;20477;-76
2022/01/29 02:58:28;;;;;;;28.00;11.35;;;;;;;;;;5015064;28;20052;-76
2022/01/29 03:00:54;;;;;;;21.92;10.73;;;;;;;;;;5015842;28;20041;-76
2022/01/29 03:03:20;;;;;;;23.63;12.30;;;7.80;99.90;;;;;;4995275;28;20413;-76
2022/01/29 03:05:46;;;;;;;21.55;10.80;;;7.90;99.90;;;;;;4998283;28;20038;-75
2022/01/29 03:08:12;;;;;;;29.75;12.48;;;7.90;99.90;;;;;;4983341;28;20063;-76
2022/01/29 03:10:38;;;;;;;22.55;10.13;;;7.90;99.90;;;;;;4979852;28;20062;-76
2022/01/29 03:13:04;;;;;;;28.13;12.38;;;7.90;99.90;;;;;;4999399;28;20030;-82
2022/01/29 03:15:30;;;;;;;33.35;11.63;;;7.90;99.90;;;;;;5007464;28;20042;-75
2022/01/29 03:17:55;;;;;;;26.30;12.68;;;7.90;99.90;;;;;;4983246;28;20052;-74
2022/01/29 03:20:21;;;;;;;21.02;12.20;;;7.90;99.90;;;;;;5012752;28;20077;-75
2022/01/29 03:22:47;;;;;;;22.52;12.05;;;7.90;99.90;;;;;;4996534;28;20120;-75
2022/01/29 03:25:13;;;;;;;26.15;11.52;;;7.90;99.90;;;;;;4996137;28;20580;-75
2022/01/29 03:27:39;;;;;;;25.85;11.65;;;7.90;99.90;;;;;;5004054;28;20048;-75
2022/01/29 03:30:07;;;;;;;22.05;11.18;;;7.90;99.90;;;;;;4978747;28;20127;-75
2022/01/29 03:32:32;;;;;;;32.63;14.73;;;7.90;99.90;;;;;;4995433;28;20034;-75
2022/01/29 03:34:59;;;;;;;27.25;14.80;;;7.90;99.90;;;;;;5012648;28;20069;-75
2022/01/29 03:37:24;;;;;;;26.23;13.00;;;7.90;99.90;;;;;;5010866;28;20076;-75
2022/01/29 03:39:51;;;;;;;23.40;13.82;;;7.90;99.90;;;;;;4998931;28;20037;-75
2022/01/29 03:42:17;;;;;;;30.52;13.77;;;8.00;99.90;;;;;;4998506;28;20473;-75
2022/01/29 03:44:44;;;;;;;23.00;13.23;;;7.90;99.90;;;;;;4994701;28;20092;-76
2022/01/29 03:47:10;;;;;;;27.42;13.77;;;7.90;99.90;;;;;;5013093;28;20065;-76
2022/01/29 03:49:35;;;;;;;25.40;12.75;;;7.90;99.90;;;;;;4996707;28;20037;-75
2022/01/29 03:52:01;;;;;;;27.67;14.02;;;8.00;99.90;;;;;;4978756;28;20029;-75
2022/01/29 03:54:27;;;;;;;24.58;12.98;;;8.00;99.90;;;;;;4996430;28;20210;-76
2022/01/29 03:56:53;;;;;;;25.17;14.48;;;8.00;99.90;;;;;;4992966;28;20099;-75
2022/01/29 03:59:20;;;;;;;25.67;13.27;;;8.00;99.90;;;;;;4993693;28;20091;-76
2022/01/29 04:01:45;;;;;;;25.25;13.88;;;8.00;99.90;;;;;;4996040;28;20045;-76
2022/01/29 04:04:11;;;;;;;25.63;14.90;;;8.10;99.90;;;;;;5010499;28;20030;-75
2022/01/29 04:06:37;;;;;;;27.38;13.38;;;8.10;99.90;;;;;;4992103;28;23913;-76
2022/01/29 04:09:05;;;;;;;17.63;12.23;;;8.10;99.90;;;;;;4977926;28;20064;-76
2022/01/29 04:11:34;;;;;;;23.92;12.55;;;8.10;99.90;;;;;;5010522;28;20087;-75
2022/01/29 04:14:00;;;;;;;23.85;13.45;;;8.10;99.90;;;;;;4995498;28;20044;-75
2022/01/29 04:16:29;;;;;;;25.77;14.27;;;8.10;99.90;;;;;;4998454;28;20287;-75
2022/01/29 04:18:57;;;;;;;23.73;12.32;;;8.10;99.90;;;;;;4978348;28;20072;-75
2022/01/29 04:21:23;;;;;;;25.48;13.18;;;8.10;99.90;;;;;;4976074;28;20073;-75
2022/01/29 04:23:48;;;;;;;26.02;13.55;;;8.20;99.90;;;;;;4997281;28;20476;-75
2022/01/29 04:26:14;;;;;;;22.38;12.77;;;8.10;99.90;;;;;;4992672;28;20107;-75
2022/01/29 04:28:43;;;;;;;24.70;12.35;;;8.20;99.90;;;;;;5013267;28;20386;-75
2022/01/29 04:31:15;;;;;;;22.13;13.05;;;8.20;99.90;;;;;;4995846;28;20410;-76
2022/01/29 04:33:41;;;;;;;19.23;13.30;;;8.20;99.90;;;;;;5010102;28;20557;-76
2022/01/29 04:36:06;;;;;;;24.23;13.48;;;8.20;99.90;;;;;;5014888;28;20124;-75
2022/01/29 04:38:33;;;;;;;24.52;14.15;;;8.20;99.90;;;;;;5013737;28;20077;-75
2022/01/29 04:41:04;;;;;;;29.27;13.65;;;8.20;99.90;;;;;;5009505;28;20432;-75
2022/01/29 04:43:31;;;;;;;19.17;12.20;;;8.20;99.90;;;;;;4993539;28;20041;-75
2022/01/29 04:45:57;;;;;;;17.70;12.80;;;8.20;99.90;;;;;;5011510;28;20044;-75
2022/01/29 04:48:23;;;;;;;25.42;12.57;;;8.20;99.90;;;;;;4993913;28;20037;-76
2022/01/29 04:50:49;;;;;;;22.80;14.32;;;8.20;99.90;;;;;;5011998;28;20103;-75
2022/01/29 04:53:14;;;;;;;25.92;13.65;;;8.20;99.90;;;;;;4992019;28;20406;-75
2022/01/29 04:55:40;;;;;;;25.95;13.05;;;8.20;99.90;;;;;;5011374;28;20060;-76
2022/01/29 04:58:06;;;;;;;22.23;12.43;;;8.30;99.90;;;;;;4981133;28;20045;-75
2022/01/29 05:00:33;;;;;;;25.33;12.55;;;8.20;99.90;;;;;;5010813;28;20046;-75
2022/01/29 05:03:07;;;;;;;23.90;13.55;;;8.20;99.90;;;;;;4993409;28;20125;-75
2022/01/29 05:05:33;;;;;;;26.95;14.02;;;8.30;99.90;;;;;;4982454;28;20516;-75
2022/01/29 05:07:59;;;;;;;27.98;13.98;;;8.20;99.90;;;;;;4992949;28;20113;-75
2022/01/29 05:10:24;;;;;;;25.05;12.63;;;8.30;99.90;;;;;;5010598;28;20037;-75
2022/01/29 05:12:59;;;;;;;27.33;12.80;;;8.20;99.90;;;;;;4995453;28;20048;-75
2022/01/29 05:28:56;;;;;;;25.80;12.85;;;8.30;99.90;;;;;;4972906;28;20442;-75
2022/01/29 05:31:21;;;;;;;24.70;14.30;;;8.30;99.90;;;;;;5007669;28;20053;-75
2022/01/29 05:33:47;;;;;;;24.38;12.82;;;8.30;99.90;;;;;;5009158;28;20045;-75
2022/01/29 05:36:13;;;;;;;18.92;13.57;;;8.30;99.90;;;;;;5010400;28;20037;-75
2022/01/29 05:38:39;;;;;;;20.70;13.80;;;8.30;99.90;;;;;;5010617;28;20441;-75
2022/01/29 05:41:05;;;;;;;24.05;13.00;;;8.30;99.90;;;;;;4993993;28;20041;-75
2022/01/29 05:43:31;;;;;;;21.00;12.35;;;8.30;99.90;;;;;;4996309;28;20501;-75
2022/01/29 05:45:57;;;;;;;19.75;12.23;;;8.30;99.90;;;;;;5009961;28;20040;-75
2022/01/29 05:48:23;;;;;;;17.70;12.55;;;8.40;99.90;;;;;;5008464;28;20112;-75
2022/01/29 05:50:49;;;;;;;22.75;12.55;;;8.40;99.90;;;;;;4996945;28;20049;-75
2022/01/29 05:53:14;;;;;;;21.30;12.60;;;8.30;99.90;;;;;;4992646;28;20049;-75
2022/01/29 05:55:40;;;;;;;22.98;12.85;;;8.40;99.90;;;;;;4992044;28;20481;-75
2022/01/29 05:58:06;;;;;;;16.70;10.77;;;8.40;99.90;;;;;;4981297;28;20076;-75
2022/01/29 06:00:32;;;;;;;20.90;12.25;;;8.40;99.90;;;;;;4992758;28;20045;-75
2022/01/29 06:03:06;;;;;;;19.52;11.88;;;8.40;99.90;;;;;;5014089;28;20065;-76
2022/01/29 06:05:32;;;;;;;21.27;11.25;;;8.40;99.90;;;;;;5010014;28;20457;-82
2022/01/29 06:07:58;;;;;;;23.23;12.68;;;8.40;99.90;;;;;;5009443;28;20068;-82
2022/01/29 06:10:25;;;;;;;20.48;11.82;;;8.40;99.90;;;;;;5007485;28;20046;-83
2022/01/29 06:13:03;;;;;;;19.00;13.10;;;8.40;99.90;;;;;;4995837;28;20044;-83
2022/01/29 06:15:32;;;;;;;27.80;13.57;;;8.40;99.90;;;;;;5021119;28;20034;-83
2022/01/29 06:17:58;;;;;;;22.67;13.88;;;8.40;99.90;;;;;;5011073;28;20044;-83
2022/01/29 06:20:24;;;;;;;20.35;12.50;;;8.40;99.90;;;;;;4992592;28;20047;-83
2022/01/29 06:22:50;;;;;;;19.02;13.60;;;8.40;99.90;;;;;;5005628;28;20052;-83
2022/01/29 06:25:16;;;;;;;19.70;11.80;;;8.40;99.90;;;;;;5015231;28;20045;-82
2022/01/29 06:27:42;;;;;;;28.75;13.95;;;8.40;99.90;;;;;;5011248;28;20029;-82
2022/01/29 06:30:08;;;;;;;22.98;13.80;;;8.40;99.90;;;;;;5011506;28;20210;-83
2022/01/29 06:32:34;;;;;;;22.40;12.32;;;8.40;99.90;;;;;;5013640;28;20076;-83
2022/01/29 06:34:59;;;;;;;22.20;12.15;;;8.40;99.90;;;;;;5011492;28;20569;-83
2022/01/29 06:37:25;;;;;;;20.88;11.55;;;8.40;99.90;;;;;;4993565;28;20038;-82
2022/01/29 06:39:51;;;;;;;22.10;12.10;;;8.40;99.90;;;;;;5016314;28;20102;-83
2022/01/29 06:42:16;;;;;;;20.20;13.73;;;8.40;99.90;;;;;;5012944;28;20410;-82
2022/01/29 06:44:42;;;;;;;17.92;11.35;;;8.40;99.90;;;;;;5014841;28;20037;-82
2022/01/29 06:47:08;;;;;;;23.58;11.05;;;8.40;99.90;;;;;;4978130;28;20467;-82
2022/01/29 06:49:34;;;;;;;21.73;11.38;;;8.40;99.90;;;;;;5009980;28;20502;-82
2022/01/29 06:51:59;;;;;;;16.08;10.02;;;8.40;99.90;;;;;;5017589;28;20179;-82
2022/01/29 06:54:25;;;;;;;19.42;11.32;;;8.50;99.90;;;;;;4997667;28;20049;-83
2022/01/29 06:56:51;;;;;;;30.33;10.52;;;8.50;99.90;;;;;;4996394;28;20048;-83
2022/01/29 06:59:16;;;;;;;20.73;12.15;;;8.50;99.90;;;;;;4998662;28;20045;-82
2022/01/29 07:01:42;;;;;;;19.75;10.82;;;8.50;99.90;;;;;;5014037;28;20437;-83
2022/01/29 07:04:08;;;;;;;17.85;9.65;;;8.50;99.90;;;;;;4992693;28;20041;-83
2022/01/29 07:06:35;;;;;;;15.98;9.98;;;8.50;99.90;;;;;;5016858;28;20037;-83
2022/01/29 07:09:02;;;;;;;19.15;10.20;;;8.50;99.90;;;;;;5011867;28;20179;-82
2022/01/29 07:11:27;;;;;;;16.23;9.32;;;8.50;99.90;;;;;;5014672;28;20363;-75
2022/01/29 07:14:01;;;;;;;18.00;10.43;;;8.50;99.90;;;;;;5014937;28;20037;-83
2022/01/29 07:16:31;;;;;;;17.40;9.32;;;8.50;99.90;;;;;;4980642;28;20053;-83
2022/01/29 07:18:58;;;;;;;17.98;10.15;;;8.50;99.90;;;;;;5008665;28;20113;-83
2022/01/29 07:21:23;;;;;;;14.95;9.50;;;8.50;99.90;;;;;;5010685;28;20128;-82
2022/01/29 07:23:49;;;;;;;21.45;10.73;;;8.50;99.90;;;;;;5012310;28;20078;-82
2022/01/29 07:26:15;;;;;;;15.82;9.75;;;8.50;99.90;;;;;;5010970;28;20448;-83
2022/01/29 07:28:41;;;;;;;17.17;9.00;;;8.50;99.90;;;;;;5011244;28;20053;-82
2022/01/29 07:31:07;;;;;;;19.08;10.63;;;8.50;99.90;;;;;;4997657;28;20538;-82
2022/01/29 07:33:33;;;;;;;15.20;9.80;;;8.50;99.90;;;;;;5010279;28;20050;-81
2022/01/29 07:35:59;;;;;;;23.85;9.23;;;8.50;99.90;;;;;;4993327;28;20038;-82
2022/01/29 07:38:25;;;;;;;21.58;9.95;;;8.50;99.90;;;;;;4993237;28;20128;-82
2022/01/29 07:40:51;;;;;;;18.73;9.27;;;8.50;99.90;;;;;;4995673;28;20042;-82
2022/01/29 07:43:18;;;;;;;17.73;10.13;;;8.50;99.90;;;;;;4977775;28;20033;-82
2022/01/29 07:45:43;;;;;;;20.63;10.13;;;8.50;99.90;;;;;;5008967;28;20545;-82
2022/01/29 07:48:09;;;;;;;14.65;8.55;;;8.50;99.90;;;;;;4994038;28;20022;-82
2022/01/29 07:50:35;;;;;;;17.55;9.93;;;8.50;99.90;;;;;;4989478;28;20470;-82
2022/01/29 07:53:02;;;;;;;13.43;10.02;;;8.50;99.90;;;;;;5005262;28;20100;-82
2022/01/29 07:55:32;;;;;;;15.57;8.30;;;8.50;99.90;;;;;;4992647;28;20068;-81
2022/01/29 07:57:59;;;;;;;16.42;9.07;;;8.40;99.90;;;;;;4972125;28;20038;-82
2022/01/29 08:00:25;;;;;;;17.42;9.05;;;8.50;99.90;;;;;;4996975;28;20084;-84
2022/01/29 08:02:50;;;;;;;19.92;9.88;;;8.50;99.90;;;;;;5016227;28;20552;-84
2022/01/29 08:05:16;;;;;;;18.63;9.23;;;8.50;99.90;;;;;;4998074;28;20041;-89
2022/01/29 08:07:42;;;;;;;15.57;8.68;;;8.40;99.90;;;;;;5010205;28;20067;-87
2022/01/29 08:10:09;;;;;;;16.70;9.68;;;8.50;99.90;;;;;;4980719;28;20036;-88
2022/01/29 08:12:34;;;;;;;16.45;8.73;;;8.40;99.90;;;;;;4991797;28;20030;-88
2022/01/29 08:15:01;;;;;;;15.90;9.10;;;8.50;99.90;;;;;;4996608;28;20041;-87
2022/01/29 08:17:27;;;;;;;15.85;8.65;;;8.40;99.90;;;;;;4993212;28;20045;-87
2022/01/29 08:19:53;;;;;;;13.80;7.57;;;8.50;99.90;;;;;;4993052;28;20041;-87
2022/01/29 08:22:19;;;;;;;12.38;8.35;;;8.50;99.90;;;;;;5012595;28;20048;-87
2022/01/29 08:24:46;;;;;;;19.55;8.00;;;8.50;99.90;;;;;;4992552;28;20483;-88
2022/01/29 08:27:12;;;;;;;14.70;7.72;;;8.50;99.90;;;;;;4994419;28;20041;-87
2022/01/29 08:29:38;;;;;;;16.75;8.25;;;8.50;99.90;;;;;;4994426;28;20042;-87
2022/01/29 08:32:04;;;;;;;14.77;7.43;;;8.50;99.90;;;;;;5011909;28;20050;-86
2022/01/29 08:34:30;;;;;;;16.10;9.32;;;8.60;99.90;;;;;;4973426;28;20058;-86
2022/01/29 08:37:02;;;;;;;14.00;6.40;;;8.50;99.90;;;;;;4991280;28;20057;-86
2022/01/29 08:39:28;;;;;;;11.53;6.77;;;8.60;99.90;;;;;;4990319;28;20457;-85
2022/01/29 08:41:55;;;;;;;11.80;6.10;;;8.60;99.90;;;;;;4995120;28;20038;-85
2022/01/29 08:44:20;;;;;;;14.20;6.97;;;8.60;99.90;;;;;;4990647;28;20042;-86
2022/01/29 08:46:46;;;;;;;10.75;6.22;;;8.60;99.90;;;;;;4990411;28;20040;-86
2022/01/29 08:49:15;;;;;;;13.32;6.60;;;8.60;99.90;;;;;;5014713;28;20041;-86
2022/01/29 08:51:40;;;;;;;14.18;6.47;;;8.70;99.90;;;;;;5006286;28;20132;-87
2022/01/29 08:54:06;;;;;;;10.77;6.50;;;8.70;99.90;;;;;;4973634;28;20121;-87
2022/01/29 08:56:32;;;;;;;15.45;7.03;;;8.70;99.90;;;;;;5011731;28;20582;-87
2022/01/29 08:58:58;;;;;;;14.88;5.50;;;8.70;99.90;;;;;;4990174;28;20038;-87
2022/01/29 09:01:24;;;;;;;10.45;5.93;;;;;;;;;;4978825;28;20037;-86
2022/01/29 09:03:50;;;;;;;14.10;6.20;;;8.70;99.90;;;;;;5009004;28;20056;-88
2022/01/29 09:06:16;;;;;;;15.32;5.25;;;8.80;99.90;;;;;;4992212;28;20286;-81
2022/01/29 09:08:46;;;;;;;14.32;6.18;;;8.80;99.90;;;;;;4973341;28;20470;-90
2022/01/29 09:11:14;;;;;;;10.18;4.93;;;8.80;99.90;;;;;;5002462;28;20045;-86
2022/01/29 09:13:40;;;;;;;9.30;6.35;;;8.80;99.90;;;;;;4987815;28;20486;-80
2022/01/29 09:16:06;;;;;;;10.23;6.05;;;8.80;99.90;;;;;;4973936;28;20045;-79
2022/01/29 09:18:32;;;;;;;11.68;5.05;;;8.80;99.90;;;;;;4986028;28;20069;-79
2022/01/29 09:20:57;;;;;;;12.20;5.03;;;8.90;99.90;;;;;;4970726;28;20061;-79
2022/01/29 09:23:23;;;;;;;9.75;5.50;;;8.90;99.90;;;;;;5000489;28;20498;-78
2022/01/29 09:25:49;;;;;;;9.40;4.88;;;8.90;99.90;;;;;;4988490;28;20061;-78
2022/01/29 09:28:15;;;;;;;15.05;5.00;;;8.90;99.90;;;;;;4974636;28;20462;-87
2022/01/29 09:30:44;;;;;;;17.08;6.32;;;9.00;99.90;;;;;;5004931;28;20868;-80
2022/01/29 09:33:11;;;;;;;12.75;5.28;;;9.00;99.90;;;;;;5003649;28;20398;-75
2022/01/29 09:35:40;;;;;;;8.45;4.88;;;9.00;99.90;;;;;;4990421;28;20079;-76
2022/01/29 09:38:07;;;;;;;7.60;4.40;;;9.00;99.90;;;;;;5009440;28;20052;-76
2022/01/29 09:40:33;;;;;;;10.88;4.18;;;9.00;99.90;;;;;;5006114;28;20057;-75
2022/01/29 09:43:01;;;;;;;9.23;4.50;;;9.00;99.90;;;;;;5004295;28;20048;-76
2022/01/29 09:45:27;;;;;;;14.77;5.38;;;9.00;99.90;;;;;;5005014;28;20071;-76
2022/01/29 09:48:01;;;;;;;10.88;3.65;;;9.00;99.90;;;;;;5005259;28;20529;-75
2022/01/29 09:50:31;;;;;;;10.75;4.50;;;9.00;99.90;;;;;;5005161;28;20033;-76
2022/01/29 09:52:58;;;;;;;11.13;4.78;;;9.10;99.90;;;;;;4975132;28;20042;-75
2022/01/29 09:55:25;;;;;;;12.10;4.80;;;9.10;99.90;;;;;;4989768;28;20045;-75
2022/01/29 09:57:54;;;;;;;10.73;4.78;;;9.10;99.90;;;;;;5002878;28;20119;-76
2022/01/29 10:00:21;;;;;;;17.17;3.65;;;9.10;99.90;;;;;;4997960;28;20042;-76
2022/01/29 10:03:17;;;;;;;16.30;4.15;;;9.20;99.90;;;;;;4991595;28;20064;-77
2022/01/29 10:05:47;;;;;;;11.68;3.22;;;9.20;99.90;;;;;;4990470;28;20522;-76
2022/01/29 10:08:14;;;;;;;8.00;4.15;;;9.20;99.90;;;;;;4992309;28;20505;-76
2022/01/29 10:10:44;;;;;;;9.05;3.85;;;9.20;99.90;;;;;;4993799;28;20718;-75
2022/01/29 10:13:31;;;;;;;12.25;5.22;;;9.20;99.90;;;;;;4991907;28;20330;-75
2022/01/29 10:16:12;;;;;;;8.90;3.85;;;9.20;99.90;;;;;;5011764;28;20048;-75
2022/01/29 10:18:40;;;;;;;13.27;3.65;;;9.30;99.90;;;;;;5010919;28;20124;-84
2022/01/29 10:21:10;;;;;;;16.00;4.20;;;9.20;99.90;;;;;;5013998;28;20034;-83
2022/01/29 10:23:37;;;;;;;12.88;3.42;;;9.30;99.90;;;;;;5006938;28;20176;-82
2022/01/29 10:26:04;;;;;;;8.43;3.97;;;9.30;99.90;;;;;;5012197;28;20447;-82
2022/01/29 10:28:32;;;;;;;13.15;4.38;;;9.30;99.90;;;;;;4995123;28;20427;-82
2022/01/29 10:30:59;;;;;;;10.95;4.15;;;9.30;99.90;;;;;;5014748;28;20042;-82
2022/01/29 10:33:30;;;;;;;8.93;3.40;;;9.40;99.90;;;;;;5010994;28;20042;-82
2022/01/29 10:36:05;;;;;;;13.15;3.70;;;9.40;99.90;;;;;;5013826;28;20417;-83
2022/01/29 10:38:40;;;;;;;9.13;3.65;;;9.40;99.90;;;;;;5013052;28;20497;-83
2022/01/29 10:41:11;;;;;;;10.30;3.88;;;9.50;99.90;;;;;;5009297;28;20164;-83
2022/01/29 10:43:53;;;;;;;;;;;9.50;99.90;;;;;;5010587;28;20053;-82
2022/01/29 10:46:25;;;;;;;10.65;4.35;;;9.50;99.90;;;;;;5030008;28;20007;-83
2022/01/29 10:48:51;;;;;;;10.65;3.15;;;9.50;99.90;;;;;;5006965;28;20038;-83
2022/01/29 10:51:16;;;;;;;9.75;3.30;;;9.50;99.90;;;;;;5009796;28;20083;-82
2022/01/29 10:53:43;;;;;;;8.02;3.10;;;9.50;99.90;;;;;;5014768;28;20772;-83
2022/01/29 10:56:09;;;;;;;14.88;3.63;;;9.50;99.90;;;;;;5007533;28;20049;-83
2022/01/29 10:58:42;;;;;;;11.27;3.40;;;9.50;99.90;;;;;;4994752;28;20429;-83
2022/01/29 11:01:24;;;;;;;9.10;3.05;;;9.50;99.90;;;;;;5010012;28;20050;-84
2022/01/29 11:03:54;;;;;;;8.88;3.13;;;9.50;99.90;;;;;;4992631;28;20043;-82
2022/01/29 11:06:26;;;;;;;16.50;4.43;;;9.50;99.90;;;;;;5008319;28;20038;-82
2022/01/29 11:08:53;;;;;;;7.05;2.80;;;9.50;99.90;;;;;;5004296;28;20037;-83
2022/01/29 11:11:19;;;;;;;5.20;2.92;;;9.60;99.90;;;;;;5007840;28;20042;-83
2022/01/29 11:13:46;;;;;;;8.13;2.55;;;9.60;99.90;;;;;;4979397;28;20149;-83
2022/01/29 11:16:13;;;;;;;10.43;2.70;;;9.60;99.90;;;;;;5009518;28;20053;-81
2022/01/29 11:18:39;;;;;;;8.02;2.97;;;9.60;99.90;;;;;;4994080;28;20100;-84
2022/01/29 11:21:05;;;;;;;5.38;2.67;;;9.60;99.90;;;;;;4992073;28;20516;-84
2022/01/29 11:23:32;;;;;;;9.90;3.63;;;9.60;99.90;;;;;;5026426;28;20049;-85
2022/01/29 11:26:00;;;;;;;7.97;2.83;;;9.60;99.90;;;;;;5005053;28;20046;-84
2022/01/29 11:28:28;;;;;;;9.15;3.20;;;9.70;99.90;;;;;;4993503;28;20129;-86
2022/01/29 11:31:14;;;;;;;6.00;3.30;;;9.70;99.90;;;;;;4996094;28;20137;-84
2022/01/29 11:33:58;;;;;;;6.05;2.67;;;9.80;99.90;;;;;;5007790;28;20361;-85
2022/01/29 11:36:49;;;;;;;10.13;2.65;;;9.70;99.90;;;;;;5012390;28;20045;-85
2022/01/29 11:39:24;;;;;;;10.07;3.03;;;9.80;99.90;;;;;;5003975;28;20084;-84
2022/01/29 11:42:15;;;;;;;12.80;3.15;;;9.80;99.90;;;;;;5006880;28;20710;-85
2022/01/29 11:44:42;;;;;;;5.55;2.83;;;9.80;99.90;;;;;;5025216;28;20052;-85
2022/01/29 11:47:24;;;;;;;12.18;4.40;;;9.80;99.90;;;;;;5013089;28;20117;-85
2022/01/29 11:49:51;;;;;;;7.38;3.75;;;9.80;99.90;;;;;;5010461;28;20449;-85
2022/01/29 11:52:25;;;;;;;8.52;3.33;;;9.80;99.90;;;;;;5006687;28;20500;-85
2022/01/29 11:54:58;;;;;;;8.52;3.03;;;;;;;;;;5026129;28;20644;-85
2022/01/29 11:57:25;;;;;;;9.68;2.90;;;;;;;;;;4992889;28;20500;-87
2022/01/29 11:59:51;;;;;;;8.43;3.22;;;;;;;;;;5009548;28;20080;-86
2022/01/29 12:02:17;;;;;;;12.63;3.22;;;;;;;;;;5005050;28;20512;-86
2022/01/29 12:04:50;;;;;;;18.20;4.30;;;;;;;;;;4992608;28;20037;-86
2022/01/29 12:07:21;;;;;;;;;;;;;;;;;;5015101;28;20045;-88
2022/01/29 12:09:49;;;;;;;6.32;3.03;;;9.80;99.90;;;;;;4993736;28;20007;-88
2022/01/29 12:12:16;;;;;;;11.65;3.38;;;;;;;;;;4993713;28;20044;-86
2022/01/29 12:14:44;;;;;;;9.30;3.03;;;10.20;99.90;;;;;;5006991;28;20098;-89
2022/01/29 12:17:12;;;;;;;17.20;4.72;;;10.30;99.90;;;;;;5007856;28;20156;-84
2022/01/29 12:19:45;;;;;;;13.43;3.20;;;10.30;99.90;;;;;;5008568;28;20575;-84
2022/01/29 12:22:26;;;;;;;11.50;3.42;;;10.30;99.90;;;;;;5006936;28;20045;-85
2022/01/29 12:24:58;;;;;;;7.82;3.38;;;10.30;99.90;;;;;;5017823;28;20160;-85
2022/01/29 12:27:39;;;;;;;12.80;3.58;;;10.30;99.90;;;;;;5008135;28;20389;-83
2022/01/29 12:30:06;;;;;;;49.05;9.88;;;10.30;99.90;;;;;;5011360;28;20429;-79
2022/01/29 12:32:32;;;;;;;11.90;4.18;;;10.30;99.90;;;;;;4986576;28;20065;-78
2022/01/29 12:34:59;;;;;;;8.98;3.17;;;10.30;99.90;;;;;;4973133;28;20037;-78
2022/01/29 12:37:25;;;;;;;11.90;4.55;;;10.30;99.90;;;;;;5000154;28;20045;-78
2022/01/29 12:40:18;;;;;;;14.25;4.32;;;10.30;99.90;;;;;;5020075;28;20482;-78
2022/01/29 12:42:55;;;;;;;13.27;3.85;;;10.30;99.90;;;;;;4987968;28;20050;-78
2022/01/29 12:45:22;;;;;;;11.13;3.83;;;10.30;99.90;;;;;;5003930;28;20446;-78
2022/01/29 12:47:48;;;;;;;9.38;3.72;;;10.20;99.90;;;;;;5003338;28;20038;-78
2022/01/29 12:50:21;;;;;;;10.23;3.80;;;10.20;99.90;;;;;;5005569;28;20096;-78
2022/01/29 12:52:47;;;;;;;;;;;10.20;99.90;;;;;;4998212;28;20042;-78
2022/01/29 12:55:13;;;;;;;12.18;3.00;;;10.20;99.90;;;;;;5022428;28;19940;-78
2022/01/29 12:57:48;;;;;;;9.18;3.03;;;10.20;99.90;;;;;;5021928;28;20482;-78
2022/01/29 13:00:19;;;;;;;6.78;2.63;;;10.20;99.90;;;;;;4987016;28;20046;-79
2022/01/29 13:02:46;;;;;;;5.47;2.65;;;;;;;;;;5003210;28;20046;-79
2022/01/29 13:05:12;;;;;;;12.60;3.40;;;;;;;;;;5024158;28;20042;-79
2022/01/29 13:07:40;;;;;;;10.20;3.33;;;;;;;;;;5004604;28;20037;-87
2022/01/29 13:10:08;;;;;;;6.38;3.05;;;;;;;;;;5024455;28;20121;-89